Time;durP1;ratioP1;P1;durP2;ratioP2;P2;SDS_P1;SDS_P2;PMS_P1;PMS_P2;Temp;Humidity;BMP_temperature;BMP_pressure;BME280_temperature;BME280_humidity;BME280_pressure;Samples;Min_cycle;Max_cycle;Signal;HPM_P1;HPM_P2
2022/03/06 00:01:31;;;;;;;0.32;0.20;;;0.30;96.10;;;;;;5070057;28;20849;-84
2022/03/06 00:03:58;;;;;;;0.60;0.60;;;0.30;96.00;;;;;;5066630;28;20203;-87
2022/03/06 00:06:25;;;;;;;0.30;0.10;;;0.30;95.60;;;;;;5070764;28;20261;-84
2022/03/06 00:08:51;;;;;;;0.30;0.10;;;0.30;95.30;;;;;;5067531;28;20195;-84
2022/03/06 00:11:19;;;;;;;0.30;0.20;;;0.30;95.50;;;;;;5070752;28;20240;-86
2022/03/06 00:13:47;;;;;;;0.30;0.10;;;0.20;95.70;;;;;;5068150;28;20576;-84
2022/03/06 00:16:14;;;;;;;0.30;0.10;;;0.20;95.70;;;;;;5077520;28;20236;-84
2022/03/06 00:18:41;;;;;;;0.30;0.20;;;0.20;95.60;;;;;;5066387;28;20658;-84
2022/03/06 00:21:09;;;;;;;0.30;0.20;;;0.10;95.30;;;;;;5068527;28;20206;-85
2022/03/06 00:23:36;;;;;;;0.30;0.10;;;0.20;95.50;;;;;;5066461;28;20210;-84
2022/03/06 00:26:03;;;;;;;0.30;0.20;;;0.10;95.70;;;;;;5067564;28;20606;-85
2022/03/06 00:28:30;;;;;;;0.30;0.10;;;0.10;95.60;;;;;;5068536;28;20256;-85
2022/03/06 00:30:59;;;;;;;0.30;0.20;;;0.00;95.60;;;;;;5066797;28;20238;-85
2022/03/06 00:33:26;;;;;;;0.30;0.10;;;0.00;95.70;;;;;;5065816;28;20895;-84
2022/03/06 00:35:52;;;;;;;0.30;0.10;;;0.10;95.30;;;;;;5069337;28;20734;-85
2022/03/06 00:38:19;;;;;;;0.30;0.10;;;0.00;95.40;;;;;;5064582;28;20580;-84
2022/03/06 00:40:47;;;;;;;0.30;0.10;;;0.00;95.70;;;;;;5070100;28;20260;-85
2022/03/06 00:43:15;;;;;;;0.30;0.10;;;0.00;95.50;;;;;;5065504;28;20325;-85
2022/03/06 00:45:42;;;;;;;0.30;0.10;;;0.00;95.40;;;;;;5069237;28;20226;-84
2022/03/06 00:48:10;;;;;;;0.68;0.68;;;0.00;95.20;;;;;;5069218;28;20260;-84
2022/03/06 00:50:38;;;;;;;0.30;0.10;;;-0.10;95.40;;;;;;5068264;28;20214;-83
2022/03/06 00:53:06;;;;;;;0.30;0.10;;;-0.10;95.40;;;;;;5064929;28;20205;-84
2022/03/06 00:55:34;;;;;;;0.30;0.20;;;-0.10;95.20;;;;;;5067565;28;20408;-85
2022/03/06 00:58:05;;;;;;;0.30;0.10;;;-0.10;95.10;;;;;;5067702;28;20290;-84
2022/03/06 01:00:34;;;;;;;0.30;0.20;;;-0.10;95.20;;;;;;5062526;28;20709;-84
2022/03/06 01:03:01;;;;;;;0.30;0.10;;;-0.20;95.20;;;;;;5065101;28;20284;-84
2022/03/06 01:05:29;;;;;;;0.30;0.10;;;-0.20;95.40;;;;;;5069195;28;20286;-85
2022/03/06 01:07:56;;;;;;;0.30;0.10;;;-0.30;95.50;;;;;;5067219;28;20199;-85
2022/03/06 01:10:23;;;;;;;0.50;0.40;;;-0.40;95.80;;;;;;5067955;28;20223;-85
2022/03/06 01:12:50;;;;;;;0.30;0.10;;;-0.40;96.00;;;;;;5064926;28;20199;-84
2022/03/06 01:15:17;;;;;;;0.30;0.10;;;-0.50;96.10;;;;;;5077303;28;20286;-84
2022/03/06 01:17:44;;;;;;;0.40;0.20;;;-0.50;96.50;;;;;;5063693;28;20242;-84
2022/03/06 01:20:12;;;;;;;1.20;1.20;;;-0.60;96.80;;;;;;5069160;28;20259;-84
2022/03/06 01:22:41;;;;;;;0.30;0.10;;;-0.60;96.90;;;;;;5067113;28;20207;-83
2022/03/06 01:25:08;;;;;;;0.30;0.10;;;-0.70;97.30;;;;;;5063852;28;20211;-83
2022/03/06 01:27:35;;;;;;;0.30;0.20;;;-0.70;96.90;;;;;;5064909;28;20201;-83
2022/03/06 01:30:05;;;;;;;0.40;0.30;;;-0.70;97.00;;;;;;5062466;28;20255;-86
2022/03/06 01:32:32;;;;;;;0.30;0.10;;;-0.80;97.10;;;;;;5067238;28;20671;-84
2022/03/06 01:34:59;;;;;;;0.30;0.20;;;-0.80;97.00;;;;;;5066356;28;20300;-84
2022/03/06 01:37:27;;;;;;;1.35;0.80;;;-0.80;97.00;;;;;;5065111;28;20207;-84
2022/03/06 01:39:55;;;;;;;0.30;0.20;;;-0.80;97.20;;;;;;5064608;28;20197;-84
2022/03/06 01:42:22;;;;;;;0.30;0.10;;;-0.90;97.40;;;;;;5063893;28;20202;-86
2022/03/06 01:44:51;;;;;;;0.30;0.10;;;-0.90;97.50;;;;;;5063392;28;20206;-85
2022/03/06 01:47:32;;;;;;;0.60;0.55;;;-1.00;97.50;;;;;;5063633;28;20206;-84
2022/03/06 01:49:59;;;;;;;0.30;0.10;;;-1.00;97.80;;;;;;5066104;28;20401;-84
2022/03/06 01:52:26;;;;;;;0.30;0.10;;;-1.00;97.70;;;;;;5064538;28;20226;-87
2022/03/06 01:54:54;;;;;;;0.30;0.10;;;-1.10;97.90;;;;;;5066493;28;20253;-85
2022/03/06 01:57:21;;;;;;;0.30;0.10;;;-1.10;98.20;;;;;;5067880;28;20745;-84
2022/03/06 01:59:49;;;;;;;1.27;1.17;;;-1.20;98.20;;;;;;5065119;28;20199;-86
2022/03/06 02:02:16;;;;;;;0.30;0.10;;;-1.10;98.30;;;;;;5062015;28;20251;-84
2022/03/06 02:04:43;;;;;;;0.30;0.10;;;-1.20;98.50;;;;;;5065497;28;20233;-84
2022/03/06 02:07:10;;;;;;;0.40;0.10;;;-1.20;98.60;;;;;;5068740;28;20201;-86
2022/03/06 02:09:37;;;;;;;0.30;0.20;;;-1.30;98.70;;;;;;5064052;28;20201;-86
2022/03/06 02:12:26;;;;;;;0.30;0.20;;;-1.30;98.70;;;;;;5072933;28;20228;-84
2022/03/06 02:14:54;;;;;;;0.30;0.10;;;-1.30;98.60;;;;;;5072784;28;20221;-85
2022/03/06 02:17:21;;;;;;;0.30;0.10;;;-1.20;98.70;;;;;;5062061;28;20252;-84
2022/03/06 02:19:53;;;;;;;0.30;0.10;;;-1.20;98.40;;;;;;5065590;28;20251;-84
2022/03/06 02:22:22;;;;;;;0.30;0.10;;;-1.30;98.40;;;;;;5065045;28;20247;-85
2022/03/06 02:24:49;;;;;;;0.30;0.10;;;-1.30;98.50;;;;;;5064456;28;20746;-84
2022/03/06 02:27:17;;;;;;;0.30;0.10;;;-1.30;98.60;;;;;;5068922;28;20290;-84
2022/03/06 02:29:45;;;;;;;0.30;0.20;;;-1.30;98.60;;;;;;5067077;28;20251;-83
2022/03/06 02:32:14;;;;;;;0.30;0.20;;;-1.30;98.70;;;;;;5064884;28;20201;-83
2022/03/06 02:34:43;;;;;;;0.40;0.10;;;-1.30;98.50;;;;;;5066443;28;20300;-83
2022/03/06 02:37:10;;;;;;;0.30;0.10;;;-1.30;98.50;;;;;;5066138;28;20221;-84
2022/03/06 02:39:39;;;;;;;0.30;0.10;;;-1.40;98.60;;;;;;5067886;28;20225;-84
2022/03/06 02:42:06;;;;;;;0.30;0.10;;;-1.40;98.70;;;;;;5064377;28;20206;-84
2022/03/06 02:44:33;;;;;;;0.30;0.10;;;-1.50;98.90;;;;;;5064553;28;20207;-84
2022/03/06 02:47:00;;;;;;;1.13;1.13;;;-1.50;99.30;;;;;;5062584;28;20264;-85
2022/03/06 02:49:27;;;;;;;1.42;1.33;;;-1.50;99.30;;;;;;5067733;28;20323;-85
2022/03/06 02:51:54;;;;;;;0.30;0.10;;;-1.60;99.30;;;;;;5067295;28;20202;-84
2022/03/06 02:54:21;;;;;;;0.30;0.10;;;-1.60;99.40;;;;;;5069594;28;20627;-84
2022/03/06 02:56:51;;;;;;;0.30;0.10;;;-1.60;99.40;;;;;;5062254;28;20234;-86
2022/03/06 02:59:18;;;;;;;0.30;0.10;;;-1.60;99.40;;;;;;5065751;28;20778;-86
2022/03/06 03:01:45;;;;;;;0.30;0.10;;;-1.70;99.60;;;;;;5069962;28;20234;-84
2022/03/06 03:04:13;;;;;;;0.30;0.10;;;-1.70;99.60;;;;;;5068298;28;20281;-85
2022/03/06 03:06:40;;;;;;;0.30;0.10;;;-1.70;99.60;;;;;;5064719;28;20206;-84
2022/03/06 03:09:08;;;;;;;0.30;0.10;;;-1.70;99.70;;;;;;5071257;28;20202;-86
2022/03/06 03:11:35;;;;;;;0.30;0.10;;;-1.70;99.60;;;;;;5075995;28;20209;-84
2022/03/06 03:14:04;;;;;;;0.30;0.10;;;-1.70;99.60;;;;;;5072964;28;20198;-84
2022/03/06 03:16:31;;;;;;;0.30;0.10;;;-1.60;99.70;;;;;;5069897;28;20246;-84
2022/03/06 03:18:58;;;;;;;0.30;0.10;;;-1.60;99.50;;;;;;5065333;28;20632;-85
2022/03/06 03:21:25;;;;;;;0.30;0.10;;;-1.60;99.70;;;;;;5071385;28;20548;-85
2022/03/06 03:23:52;;;;;;;0.30;0.10;;;-1.60;99.70;;;;;;5064427;28;20248;-84
2022/03/06 03:26:19;;;;;;;0.30;0.10;;;-1.70;99.90;;;;;;5070148;28;20263;-84
2022/03/06 03:28:46;;;;;;;0.30;0.10;;;-1.60;99.90;;;;;;5069194;28;20194;-84
2022/03/06 03:31:14;;;;;;;0.30;0.10;;;-1.60;99.80;;;;;;5071146;28;20229;-84
2022/03/06 03:33:42;;;;;;;0.30;0.10;;;-1.50;99.80;;;;;;5067110;28;20281;-86
2022/03/06 03:36:10;;;;;;;0.45;0.38;;;-1.60;99.90;;;;;;5067246;28;20257;-84
2022/03/06 03:38:38;;;;;;;2.28;0.80;;;-1.60;99.80;;;;;;5071818;28;20218;-86
2022/03/06 03:41:05;;;;;;;0.30;0.10;;;-1.60;99.70;;;;;;5059410;28;20251;-84
2022/03/06 03:43:32;;;;;;;0.47;0.47;;;-1.50;99.80;;;;;;5065447;28;20198;-83
2022/03/06 03:45:59;;;;;;;0.30;0.10;;;-1.50;99.80;;;;;;5067866;28;20210;-86
2022/03/06 03:48:29;;;;;;;0.30;0.10;;;-1.60;99.90;;;;;;5065142;28;20225;-84
2022/03/06 03:50:56;;;;;;;0.30;0.20;;;-1.60;99.90;;;;;;5067767;28;21917;-84
2022/03/06 03:53:23;;;;;;;0.30;0.20;;;-1.60;99.90;;;;;;5064702;28;20775;-84
2022/03/06 03:55:51;;;;;;;0.40;0.35;;;-1.70;99.90;;;;;;5064810;28;20229;-84
2022/03/06 03:58:18;;;;;;;0.30;0.20;;;-1.60;99.90;;;;;;5066399;28;20221;-84
2022/03/06 04:00:46;;;;;;;0.30;0.10;;;-1.70;99.90;;;;;;5068625;28;20198;-84
2022/03/06 04:03:13;;;;;;;0.40;0.22;;;-1.70;99.90;;;;;;5065139;28;20251;-85
2022/03/06 04:05:42;;;;;;;0.40;0.30;;;-1.80;99.90;;;;;;5069878;28;20215;-83
2022/03/06 04:08:09;;;;;;;0.30;0.20;;;-1.80;99.90;;;;;;5068757;28;20194;-84
2022/03/06 04:10:35;;;;;;;0.30;0.10;;;-1.90;99.90;;;;;;5075545;28;20202;-84
2022/03/06 04:13:03;;;;;;;0.30;0.10;;;-1.90;99.90;;;;;;5070130;28;20657;-85
2022/03/06 04:15:30;;;;;;;2.70;0.82;;;-1.90;99.90;;;;;;5068648;28;20225;-84
2022/03/06 04:17:57;;;;;;;0.40;0.30;;;-1.90;99.90;;;;;;5067466;28;20229;-84
2022/03/06 04:20:24;;;;;;;0.30;0.10;;;-1.90;99.90;;;;;;5068252;28;20194;-84
2022/03/06 04:22:52;;;;;;;0.30;0.10;;;-1.90;99.90;;;;;;5068186;28;20739;-84
2022/03/06 04:25:19;;;;;;;0.30;0.15;;;-1.90;99.90;;;;;;5066140;28;20753;-84
2022/03/06 04:27:46;;;;;;;0.30;0.10;;;-1.90;99.90;;;;;;5066437;28;20255;-83
2022/03/06 04:30:13;;;;;;;0.30;0.10;;;-1.80;99.90;;;;;;5065889;28;20274;-84
2022/03/06 04:32:40;;;;;;;0.30;0.10;;;-1.80;99.90;;;;;;5064541;28;20232;-85
2022/03/06 04:35:08;;;;;;;0.63;0.63;;;-1.80;99.90;;;;;;5064527;28;20260;-86
2022/03/06 04:37:35;;;;;;;0.30;0.10;;;-1.80;99.90;;;;;;5064291;28;20202;-84
2022/03/06 04:40:04;;;;;;;0.30;0.10;;;-1.80;99.90;;;;;;5068332;28;20416;-84
2022/03/06 04:42:31;;;;;;;0.47;0.43;;;-1.80;99.90;;;;;;5066787;28;20206;-84
2022/03/06 04:44:58;;;;;;;0.30;0.10;;;-1.80;99.90;;;;;;5067547;28;20690;-83
2022/03/06 04:47:25;;;;;;;0.30;0.10;;;-1.80;99.90;;;;;;5063301;28;20197;-85
2022/03/06 04:49:52;;;;;;;0.30;0.17;;;-1.80;99.90;;;;;;5063800;28;20282;-83
2022/03/06 04:52:19;;;;;;;1.00;1.00;;;-1.70;99.90;;;;;;5068007;28;20255;-85
2022/03/06 04:54:46;;;;;;;0.30;0.10;;;-1.70;99.90;;;;;;5066841;28;20259;-83
2022/03/06 04:57:14;;;;;;;0.30;0.10;;;-1.60;99.90;;;;;;5065544;28;20778;-85
2022/03/06 04:59:42;;;;;;;0.30;0.10;;;-1.70;99.90;;;;;;5066725;28;20210;-85
2022/03/06 05:02:08;;;;;;;0.30;0.20;;;-1.60;99.90;;;;;;5066414;28;20570;-83
2022/03/06 05:04:36;;;;;;;0.30;0.10;;;-1.70;99.90;;;;;;5069134;28;20201;-83
2022/03/06 05:07:03;;;;;;;0.30;0.20;;;-1.70;99.90;;;;;;5070251;28;20250;-83
2022/03/06 05:09:30;;;;;;;0.30;0.20;;;-1.70;99.90;;;;;;5068554;28;20198;-83
2022/03/06 05:11:57;;;;;;;0.30;0.10;;;-1.70;99.90;;;;;;5066731;28;20229;-83
2022/03/06 05:14:25;;;;;;;0.30;0.10;;;-1.70;99.90;;;;;;5064365;28;20225;-83
2022/03/06 05:16:52;;;;;;;0.30;0.10;;;-1.70;99.90;;;;;;5066028;28;20571;-83
2022/03/06 05:19:19;;;;;;;0.30;0.10;;;-1.70;99.90;;;;;;5068797;28;20642;-83
2022/03/06 05:21:46;;;;;;;0.40;0.22;;;-1.60;99.90;;;;;;5068152;28;20847;-82
2022/03/06 05:24:13;;;;;;;0.30;0.10;;;-1.60;99.90;;;;;;5065018;28;20895;-85
2022/03/06 05:26:40;;;;;;;0.30;0.10;;;-1.70;99.90;;;;;;5067683;28;20837;-83
2022/03/06 05:29:07;;;;;;;0.30;0.10;;;-1.70;99.90;;;;;;5065917;28;20202;-83
2022/03/06 05:31:35;;;;;;;0.30;0.17;;;-1.70;99.90;;;;;;5065611;28;20205;-83
2022/03/06 05:34:02;;;;;;;0.90;0.85;;;-1.70;99.90;;;;;;5067229;28;20201;-83
2022/03/06 05:36:29;;;;;;;0.30;0.10;;;-1.60;99.90;;;;;;5065635;28;20226;-83
2022/03/06 05:38:56;;;;;;;0.30;0.10;;;-1.60;99.90;;;;;;5063250;28;20295;-83
2022/03/06 05:41:23;;;;;;;0.30;0.10;;;-1.70;99.90;;;;;;5067318;28;20204;-83
2022/03/06 05:43:50;;;;;;;0.30;0.10;;;-1.60;99.90;;;;;;5065598;28;20246;-84
2022/03/06 05:46:17;;;;;;;0.30;0.10;;;-1.60;99.90;;;;;;5067305;28;20209;-85
2022/03/06 05:48:46;;;;;;;0.30;0.10;;;-1.60;99.90;;;;;;5064353;28;20197;-83
2022/03/06 05:51:13;;;;;;;0.30;0.10;;;-1.70;99.90;;;;;;5063261;28;20796;-84
2022/03/06 05:53:40;;;;;;;0.30;0.20;;;-1.60;99.90;;;;;;5064384;28;20202;-84
2022/03/06 05:56:07;;;;;;;0.30;0.10;;;-1.60;99.90;;;;;;5067298;28;20238;-85
2022/03/06 05:58:33;;;;;;;0.30;0.10;;;-1.50;99.90;;;;;;5065284;28;20201;-85
2022/03/06 06:01:01;;;;;;;0.30;0.10;;;-1.60;99.90;;;;;;5064151;28;20201;-83
2022/03/06 06:03:28;;;;;;;0.30;0.10;;;-1.50;99.90;;;;;;5059180;28;20202;-84
2022/03/06 06:05:56;;;;;;;0.30;0.10;;;-1.60;99.90;;;;;;5059211;28;20540;-84
2022/03/06 06:08:23;;;;;;;0.30;0.10;;;-1.50;99.90;;;;;;5067278;28;20240;-84
2022/03/06 06:10:50;;;;;;;0.40;0.35;;;-1.60;99.90;;;;;;5050354;28;20628;-82
2022/03/06 06:13:19;;;;;;;0.30;0.10;;;-1.50;99.90;;;;;;5062630;28;20725;-80
2022/03/06 06:15:46;;;;;;;0.30;0.10;;;-1.50;99.90;;;;;;5066755;28;20271;-79
2022/03/06 06:18:13;;;;;;;0.30;0.10;;;-1.50;99.90;;;;;;5049706;28;20232;-80
2022/03/06 06:20:40;;;;;;;0.30;0.10;;;-1.40;99.90;;;;;;5057875;28;20194;-81
2022/03/06 06:23:08;;;;;;;0.35;0.22;;;-1.40;99.90;;;;;;5059244;28;20672;-80
2022/03/06 06:25:35;;;;;;;0.30;0.20;;;-1.40;99.90;;;;;;5066220;28;20212;-82
2022/03/06 06:28:02;;;;;;;0.30;0.20;;;-1.30;99.90;;;;;;5064989;28;20198;-82
2022/03/06 06:30:29;;;;;;;0.40;0.30;;;-1.30;99.90;;;;;;5065924;28;20202;-83
2022/03/06 06:32:56;;;;;;;0.50;0.30;;;-1.30;99.90;;;;;;5068538;28;20251;-84
2022/03/06 06:35:23;;;;;;;1.88;1.80;;;-1.30;99.90;;;;;;5069023;28;20205;-83
2022/03/06 06:37:50;;;;;;;0.30;0.20;;;-1.30;99.90;;;;;;5068127;28;20240;-85
2022/03/06 06:40:18;;;;;;;0.30;0.17;;;-1.30;99.90;;;;;;5069432;28;20627;-83
2022/03/06 06:42:45;;;;;;;0.30;0.20;;;-1.20;99.90;;;;;;5069982;28;20238;-83
2022/03/06 06:45:12;;;;;;;0.75;0.75;;;-1.20;99.90;;;;;;5067301;28;20221;-84
2022/03/06 06:47:39;;;;;;;0.30;0.20;;;-1.00;99.90;;;;;;5069993;28;20207;-85
2022/03/06 06:50:08;;;;;;;0.30;0.10;;;-1.00;99.90;;;;;;5067097;28;20226;-81
2022/03/06 06:52:35;;;;;;;0.30;0.10;;;-0.80;99.90;;;;;;5067092;28;20202;-83
2022/03/06 06:55:02;;;;;;;0.30;0.10;;;-0.80;99.90;;;;;;5066842;28;20198;-85
2022/03/06 06:57:30;;;;;;;6.38;1.20;;;-0.80;99.90;;;;;;5059553;28;20226;-83
2022/03/06 06:59:58;;;;;;;0.30;0.20;;;-0.60;99.90;;;;;;5065715;28;20256;-85
2022/03/06 07:02:25;;;;;;;0.30;0.10;;;-0.50;99.90;;;;;;5071177;28;20202;-83
2022/03/06 07:04:52;;;;;;;0.40;0.30;;;-0.50;99.90;;;;;;5073924;28;20205;-82
2022/03/06 07:07:19;;;;;;;0.40;0.25;;;-0.40;99.90;;;;;;5076786;28;20252;-82
2022/03/06 07:09:46;;;;;;;0.30;0.10;;;-0.30;99.90;;;;;;5065108;28;20256;-83
2022/03/06 07:12:13;;;;;;;0.65;0.55;;;-0.30;99.90;;;;;;5070580;28;20211;-83
2022/03/06 07:14:41;;;;;;;0.30;0.15;;;-0.20;99.90;;;;;;5072439;28;20225;-82
2022/03/06 07:17:08;;;;;;;0.40;0.40;;;-0.20;99.90;;;;;;5067172;28;20291;-82
2022/03/06 07:19:35;;;;;;;0.30;0.20;;;0.00;99.90;;;;;;5071162;28;20192;-82
2022/03/06 07:22:02;;;;;;;0.40;0.38;;;0.00;99.90;;;;;;5055565;28;20199;-82
2022/03/06 07:24:29;;;;;;;0.30;0.20;;;0.00;99.90;;;;;;5069083;28;20260;-82
2022/03/06 07:26:56;;;;;;;0.30;0.20;;;0.10;99.90;;;;;;5072031;28;20208;-83
2022/03/06 07:29:23;;;;;;;0.40;0.28;;;0.20;99.90;;;;;;5065822;28;20199;-85
2022/03/06 07:31:52;;;;;;;0.30;0.10;;;0.20;99.90;;;;;;5052226;28;20252;-82
2022/03/06 07:34:19;;;;;;;0.30;0.10;;;0.10;99.90;;;;;;5066279;28;20719;-83
2022/03/06 07:36:46;;;;;;;0.30;0.10;;;0.00;99.90;;;;;;5056170;28;20231;-86
2022/03/06 07:39:13;;;;;;;0.40;0.20;;;0.10;99.90;;;;;;5065775;28;20198;-82
2022/03/06 07:41:40;;;;;;;0.30;0.20;;;0.20;99.70;;;;;;5070784;28;20198;-83
2022/03/06 07:44:07;;;;;;;0.68;0.68;;;0.30;99.90;;;;;;5068950;28;20651;-82
2022/03/06 07:46:34;;;;;;;0.40;0.20;;;0.40;99.80;;;;;;5065615;28;20253;-82
2022/03/06 07:49:03;;;;;;;0.30;0.10;;;0.60;99.50;;;;;;5070123;28;20603;-93
2022/03/06 07:51:30;;;;;;;0.30;0.10;;;0.60;99.20;;;;;;5070225;28;20194;-84
2022/03/06 07:53:57;;;;;;;0.40;0.20;;;0.50;98.90;;;;;;5051995;28;20249;-83
2022/03/06 07:56:24;;;;;;;0.30;0.20;;;0.50;98.70;;;;;;5065117;28;20224;-82
2022/03/06 07:58:51;;;;;;;0.30;0.20;;;0.60;99.10;;;;;;5071446;28;20285;-82
2022/03/06 08:01:18;;;;;;;0.65;0.65;;;0.60;98.40;;;;;;5054309;28;20276;-82
2022/03/06 08:03:45;;;;;;;0.40;0.30;;;0.70;98.90;;;;;;5055439;28;20207;-82
2022/03/06 08:06:13;;;;;;;0.40;0.20;;;0.80;98.30;;;;;;5061092;28;20230;-83
2022/03/06 08:08:41;;;;;;;5.35;1.10;;;0.80;98.40;;;;;;5066583;28;20755;-83
2022/03/06 08:11:08;;;;;;;0.30;0.10;;;0.90;97.60;;;;;;5068579;28;20194;-83
2022/03/06 08:13:35;;;;;;;0.30;0.17;;;1.00;98.10;;;;;;5070556;28;20606;-83
2022/03/06 08:16:02;;;;;;;1.08;0.38;;;1.20;98.10;;;;;;5062053;28;20715;-83
2022/03/06 08:18:29;;;;;;;0.30;0.10;;;1.30;97.50;;;;;;5070521;28;20658;-84
2022/03/06 08:20:55;;;;;;;0.30;0.20;;;1.40;97.10;;;;;;5068000;28;20721;-83
2022/03/06 08:23:24;;;;;;;0.30;0.10;;;1.40;96.50;;;;;;5070164;28;20699;-83
2022/03/06 08:25:51;;;;;;;0.40;0.20;;;1.30;96.70;;;;;;5067384;28;20258;-87
2022/03/06 08:28:18;;;;;;;0.30;0.10;;;1.20;96.00;;;;;;5058809;28;20245;-85
2022/03/06 08:30:45;;;;;;;0.30;0.10;;;1.50;97.20;;;;;;5063524;28;20197;-84
2022/03/06 08:33:13;;;;;;;0.30;0.20;;;1.50;95.80;;;;;;5067649;28;20201;-86
2022/03/06 08:35:40;;;;;;;0.82;0.45;;;1.40;95.30;;;;;;5065481;28;20197;-85
2022/03/06 08:38:07;;;;;;;1.67;1.67;;;1.50;95.60;;;;;;5070209;28;20834;-84
2022/03/06 08:40:35;;;;;;;0.30;0.20;;;1.40;95.20;;;;;;5070725;28;20874;-83
2022/03/06 08:43:02;;;;;;;0.30;0.15;;;1.60;95.30;;;;;;5050096;28;20494;-84
2022/03/06 08:45:29;;;;;;;0.30;0.10;;;1.80;94.90;;;;;;5059344;28;20250;-84
2022/03/06 08:47:56;;;;;;;0.55;0.55;;;1.80;94.50;;;;;;5069378;28;20569;-83
2022/03/06 08:50:23;;;;;;;0.30;0.10;;;1.80;93.80;;;;;;5063319;28;20729;-84
2022/03/06 08:52:50;;;;;;;0.73;0.73;;;1.80;93.80;;;;;;5055610;28;20197;-84
2022/03/06 08:55:17;;;;;;;0.30;0.20;;;1.70;93.70;;;;;;5052188;28;20478;-86
2022/03/06 08:57:46;;;;;;;0.30;0.20;;;1.70;94.40;;;;;;5066279;28;20284;-84
2022/03/06 09:00:13;;;;;;;0.30;0.10;;;2.00;94.50;;;;;;5067606;28;20208;-83
2022/03/06 09:02:40;;;;;;;2.60;2.45;;;2.10;94.30;;;;;;5061951;28;20200;-83
2022/03/06 09:05:08;;;;;;;0.30;0.10;;;2.20;93.20;;;;;;5064916;28;20209;-85
2022/03/06 09:07:35;;;;;;;2.40;2.20;;;2.20;93.20;;;;;;5069237;28;20460;-84
2022/03/06 09:10:02;;;;;;;0.30;0.20;;;2.20;92.50;;;;;;5066766;28;20234;-81
2022/03/06 09:12:29;;;;;;;0.70;0.70;;;2.30;92.40;;;;;;5068470;28;20467;-84
2022/03/06 09:14:59;;;;;;;0.30;0.10;;;2.60;92.60;;;;;;5065951;28;20446;-82
2022/03/06 09:17:27;;;;;;;0.30;0.10;;;2.80;92.00;;;;;;5060593;28;20546;-81
2022/03/06 09:19:53;;;;;;;0.30;0.10;;;2.70;92.10;;;;;;5058423;28;20265;-83
2022/03/06 09:22:20;;;;;;;0.30;0.10;;;2.90;91.50;;;;;;5059400;28;20508;-82
2022/03/06 09:24:47;;;;;;;0.30;0.10;;;3.10;91.40;;;;;;5057808;28;21035;-82
2022/03/06 09:27:14;;;;;;;4.80;1.03;;;2.80;89.30;;;;;;5068663;28;20478;-82
2022/03/06 09:29:41;;;;;;;0.30;0.20;;;3.00;89.90;;;;;;5049825;28;20464;-82
2022/03/06 09:32:10;;;;;;;0.60;0.30;;;3.10;90.70;;;;;;5049951;28;20484;-83
2022/03/06 09:34:37;;;;;;;0.70;0.20;;;3.30;89.60;;;;;;5063324;28;20454;-82
2022/03/06 09:37:04;;;;;;;3.40;1.13;;;3.40;89.60;;;;;;5064078;28;21106;-84
2022/03/06 09:39:31;;;;;;;0.30;0.20;;;3.30;87.50;;;;;;5069474;28;20504;-82
2022/03/06 09:41:59;;;;;;;0.30;0.20;;;3.40;84.30;;;;;;5051672;28;20884;-84
2022/03/06 09:44:27;;;;;;;0.30;0.20;;;3.50;83.20;;;;;;5047989;28;20535;-83
2022/03/06 09:46:56;;;;;;;0.40;0.40;;;3.80;83.30;;;;;;5065339;28;20479;-83
2022/03/06 09:49:25;;;;;;;0.30;0.10;;;3.80;79.60;;;;;;5068309;28;20927;-86
2022/03/06 09:51:54;;;;;;;0.30;0.20;;;3.70;79.00;;;;;;5062278;28;20518;-82
2022/03/06 09:54:21;;;;;;;0.50;0.50;;;3.70;78.70;;;;;;5068609;28;20451;-83
2022/03/06 09:56:48;;;;;;;0.30;0.10;;;3.60;78.00;;;;;;5067905;28;20573;-81
2022/03/06 09:59:15;;;;;;;0.30;0.10;;;3.60;77.90;;;;;;5060209;28;20462;-82
2022/03/06 10:01:42;;;;;;;0.60;0.60;;;3.70;78.70;;;;;;5068014;28;20484;-83
2022/03/06 10:04:25;;;;;;;1.03;0.50;;;3.80;78.70;;;;;;5069325;28;20533;-81
2022/03/06 10:06:59;;;;;;;0.70;0.70;;;3.80;76.30;;;;;;5065520;28;20483;-81
2022/03/06 10:09:26;;;;;;;0.37;0.20;;;3.80;76.20;;;;;;5067463;28;20548;-82
2022/03/06 10:11:54;;;;;;;0.40;0.40;;;3.80;74.00;;;;;;5057255;28;20510;-81
2022/03/06 10:14:39;;;;;;;0.30;0.13;;;3.80;76.20;;;;;;5062845;28;20562;-83
2022/03/06 10:17:10;;;;;;;0.30;0.20;;;3.70;74.00;;;;;;5064952;28;20589;-82
2022/03/06 10:19:56;;;;;;;0.30;0.17;;;3.80;75.30;;;;;;5053163;28;20471;-83
2022/03/06 10:22:25;;;;;;;0.30;0.10;;;4.10;72.50;;;;;;5069982;28;20447;-82
2022/03/06 10:24:53;;;;;;;0.30;0.10;;;4.20;73.30;;;;;;5066700;28;20506;-83
2022/03/06 10:27:49;;;;;;;0.40;0.30;;;4.10;71.40;;;;;;5068642;28;20512;-82
2022/03/06 10:30:27;;;;;;;0.30;0.10;;;3.70;68.30;;;;;;5058557;28;20951;-83
2022/03/06 10:32:55;;;;;;;0.30;0.10;;;4.00;70.70;;;;;;5066906;28;20536;-81
2022/03/06 10:35:34;;;;;;;0.30;0.10;;;4.10;70.40;;;;;;5062656;28;20518;-84
2022/03/06 10:38:02;;;;;;;0.30;0.10;;;4.20;71.20;;;;;;5067727;28;20540;-83
2022/03/06 10:40:36;;;;;;;0.30;0.20;;;4.20;72.00;;;;;;5067986;28;20930;-83
2022/03/06 10:43:17;;;;;;;0.40;0.30;;;4.40;70.00;;;;;;5067683;28;20830;-82
2022/03/06 10:45:44;;;;;;;0.60;0.20;;;4.20;69.10;;;;;;5068424;28;20460;-83
2022/03/06 10:48:12;;;;;;;0.53;0.53;;;4.10;72.30;;;;;;5069049;28;21072;-83
2022/03/06 10:50:41;;;;;;;0.37;0.30;;;4.30;69.80;;;;;;5060305;28;20499;-83
2022/03/06 10:53:18;;;;;;;0.30;0.10;;;4.60;68.70;;;;;;5068930;28;20447;-84
2022/03/06 10:55:46;;;;;;;0.30;0.20;;;4.60;65.50;;;;;;5071020;28;20590;-84
2022/03/06 10:58:14;;;;;;;0.30;0.10;;;4.90;67.40;;;;;;5070355;28;20544;-84
2022/03/06 11:00:42;;;;;;;0.53;0.53;;;5.30;68.00;;;;;;5069188;28;20448;-83
2022/03/06 11:03:12;;;;;;;1.43;0.57;;;5.20;65.10;;;;;;5067940;28;20524;-83
2022/03/06 11:05:43;;;;;;;0.37;0.23;;;4.80;65.80;;;;;;5059621;28;20464;-84
2022/03/06 11:08:13;;;;;;;0.30;0.17;;;4.70;65.50;;;;;;5048769;28;20449;-84
2022/03/06 11:10:41;;;;;;;0.60;0.30;;;4.90;64.30;;;;;;5057219;28;20514;-84
2022/03/06 11:13:08;;;;;;;0.40;0.40;;;5.20;65.80;;;;;;5072399;28;20504;-84
2022/03/06 11:15:35;;;;;;;0.30;0.20;;;5.30;64.00;;;;;;5066290;28;20507;-81
2022/03/06 11:18:04;;;;;;;0.40;0.30;;;5.40;66.20;;;;;;5071519;28;21071;-80
2022/03/06 11:20:31;;;;;;;0.30;0.20;;;5.50;59.90;;;;;;5071826;28;20447;-80
2022/03/06 11:23:13;;;;;;;0.40;0.20;;;5.20;59.90;;;;;;5071740;28;20481;-83
2022/03/06 11:25:49;;;;;;;0.30;0.20;;;5.50;66.40;;;;;;5053171;28;20464;-85
2022/03/06 11:28:30;;;;;;;0.30;0.10;;;5.90;64.60;;;;;;5058898;28;20451;-85
2022/03/06 11:30:59;;;;;;;0.40;0.37;;;6.40;63.00;;;;;;5055851;28;20577;-83
2022/03/06 11:33:27;;;;;;;0.40;0.30;;;6.20;60.10;;;;;;5053700;28;20536;-84
2022/03/06 11:35:55;;;;;;;0.30;0.20;;;6.20;64.20;;;;;;5052780;28;20464;-84
2022/03/06 11:38:40;;;;;;;0.60;0.50;;;6.30;61.30;;;;;;5068581;28;20566;-83
2022/03/06 11:41:11;;;;;;;0.30;0.17;;;6.40;58.80;;;;;;5066718;28;20700;-84
2022/03/06 11:43:44;;;;;;;0.30;0.20;;;5.90;57.60;;;;;;5067909;28;20510;-83
2022/03/06 11:46:16;;;;;;;0.30;0.20;;;5.60;58.50;;;;;;5069408;28;20455;-83
2022/03/06 11:49:15;;;;;;;0.80;0.20;;;5.60;59.70;;;;;;5071920;28;20938;-84
2022/03/06 11:51:48;;;;;;;0.30;0.10;;;5.50;60.20;;;;;;5069442;28;20448;-83
2022/03/06 11:54:22;;;;;;;0.30;0.10;;;5.60;60.80;;;;;;5073065;28;20467;-83
2022/03/06 11:56:59;;;;;;;0.30;0.20;;;6.00;60.00;;;;;;5070973;28;20521;-83
2022/03/06 11:59:38;;;;;;;1.93;1.30;;;5.90;59.80;;;;;;5068399;28;20486;-83
2022/03/06 12:02:12;;;;;;;0.30;0.20;;;5.80;63.10;;;;;;5068031;28;20459;-83
2022/03/06 12:04:44;;;;;;;0.40;0.40;;;5.30;58.60;;;;;;5070763;28;20451;-83
2022/03/06 12:07:12;;;;;;;0.40;0.40;;;5.10;59.10;;;;;;5068946;28;20483;-84
2022/03/06 12:09:42;;;;;;;0.30;0.20;;;5.20;61.30;;;;;;5071033;28;20483;-83
2022/03/06 12:12:11;;;;;;;0.30;0.20;;;5.50;61.60;;;;;;5059918;28;20468;-85
2022/03/06 12:14:40;;;;;;;0.40;0.30;;;5.30;60.40;;;;;;5069190;28;20525;-82
2022/03/06 12:17:34;;;;;;;0.43;0.33;;;4.80;59.80;;;;;;5057307;28;20558;-84
2022/03/06 12:20:30;;;;;;;0.30;0.20;;;4.70;60.80;;;;;;5070857;28;20452;-83
2022/03/06 12:23:06;;;;;;;0.40;0.20;;;4.80;60.70;;;;;;5061780;28;20531;-83
2022/03/06 12:25:39;;;;;;;0.30;0.20;;;5.00;63.40;;;;;;5071349;28;20542;-84
2022/03/06 12:28:26;;;;;;;0.30;0.20;;;5.10;61.30;;;;;;5055835;28;20505;-81
2022/03/06 12:30:55;;;;;;;0.30;0.20;;;5.30;64.30;;;;;;5064365;28;21066;-85
2022/03/06 12:33:43;;;;;;;0.30;0.10;;;5.20;66.90;;;;;;5063735;28;20509;-84
2022/03/06 12:36:23;;;;;;;0.50;0.20;;;5.30;64.60;;;;;;5056016;28;20511;-85
2022/03/06 12:38:55;;;;;;;0.97;0.97;;;4.70;62.90;;;;;;5066709;28;20486;-85
2022/03/06 12:41:24;;;;;;;1.67;1.47;;;4.40;64.30;;;;;;5063511;28;20515;-82
2022/03/06 12:43:58;;;;;;;1.50;0.50;;;4.00;65.80;;;;;;5057457;28;20579;-83
2022/03/06 12:46:26;;;;;;;0.30;0.10;;;3.90;64.70;;;;;;5058797;28;20463;-82
2022/03/06 12:48:53;;;;;;;0.37;0.23;;;3.90;66.30;;;;;;5066709;28;20483;-82
2022/03/06 12:51:28;;;;;;;0.30;0.10;;;3.80;66.30;;;;;;5074837;28;20517;-83
2022/03/06 12:53:55;;;;;;;0.30;0.20;;;3.90;67.10;;;;;;5064805;28;20503;-83
2022/03/06 12:56:47;;;;;;;0.30;0.10;;;4.10;66.00;;;;;;5068534;28;20483;-82
2022/03/06 12:59:17;;;;;;;0.40;0.40;;;4.30;67.50;;;;;;5049166;28;20542;-83
2022/03/06 13:01:46;;;;;;;0.30;0.10;;;4.20;66.30;;;;;;5069621;28;20444;-83